Eugene, OR

10:47 PM PST on March 05, 2015 (GMT -0800)
Santa Clara | Change Station
CLOSE
Current Station
Personal Weather Station
Location: Eugene, OR
Elevation: 406 ft
Nearby Weather Stations

Elev 406 ft 44.11 °N, 123.15 °W | Updated 4 seconds ago

Partly Cloudy
Partly Cloudy
41.6 °F
Feels Like 39 °F
N
4.0
Wind Variable Wind from SSE
Gusts 5.0 mph

Today
High -- | Low -- °F
--% Chance of Precip.
Yesterday
High -- | Low -- °F
Precip. -- in
6:42 AM 6:05 PM
Full, 100% visible
Pressure 30.38 in
Visibility 10.0 miles
Clouds Scattered Clouds 20000 ft
Windchill 39 °F
Dew Point 38 °F
Humidity 86%
Rainfall in
Snow Depth Not available.
UV 0 out of 12
Pollen 3.80 out of 12
Air Quality Not available.
Flu Activity Not available.
METAR KEUG 060554Z 16003KT 10SM SCT200 06/04 A3037 RMK AO2 SLP285 T00610039 10167 20050 53009

More Conditions Fewer Conditions

Pressure 30.38 in
Visibility 10.0 miles
Clouds Scattered Clouds 20000 ft
Windchill 39 °F
Dew Point 38 °F
Humidity 86%
Rainfall in
Snow Depth Not available.
UV 0 out of 12
Pollen 3.80 out of 12
Air Quality Not available.
Flu Activity Not available.
METAR KEUG 060554Z 16003KT 10SM SCT200 06/04 A3037 RMK AO2 SLP285 T00610039 10167 20050 53009

More Conditions Fewer Conditions

10-Day Weather Forecast

Almanac

Astronomy

Mar. 05, 2015 Rise Set
Actual Time
Civil Twilight
Nautical Twilight
Astronomical Twilight
Moon
Length of Visible Light
Length of Day
Tomorrow will be .
, % of the Moon is Illuminated

Today's Extremes

State Highs State Lows

Community

WunderPhotos

Upload Photos

1,803,197 photos uploaded!

WunderBlogs® & News

Nearby

Air Quality

  Air Quality AQ Index Pollutant
Not available.

Snow Depth

Station Depth Elevation

Earthquake Activity

City Distance Mag. Time & Date
Minimum magnitude displayed is 2.5.

Coastal Water Temperatures

Place Temperature

Nearby Weather Stations